Time;durP1;ratioP1;P1;durP2;ratioP2;P2;SDS_P1;SDS_P2;PMS_P1;PMS_P2;Temp;Humidity;BMP_temperature;BMP_pressure;BME280_temperature;BME280_humidity;BME280_pressure;Samples;Min_cycle;Max_cycle;Signal;HPM_P1;HPM_P2
2021/01/10 00:00:15;;;;;;;54.87;27.43;;;;;;;-5.95;100.00;96192.81;1026691;28;20106;-66
2021/01/10 00:00:46;;;;;;;55.67;27.10;;;;;;;-6.03;100.00;96176.63;1027390;28;20023;-66
2021/01/10 00:01:16;;;;;;;56.17;29.57;;;;;;;-5.92;100.00;96192.47;1023535;28;20510;-68
2021/01/10 00:01:47;;;;;;;48.87;26.60;;;;;;;-6.00;100.00;96173.75;1026478;28;20023;-67
2021/01/10 00:02:17;;;;;;;53.33;27.90;;;;;;;-5.89;100.00;96185.47;1014789;29;20178;-67
2021/01/10 00:02:49;;;;;;;58.17;29.20;;;;;;;-5.87;100.00;96198.91;1016707;29;20124;-69
2021/01/10 00:03:19;;;;;;;54.15;27.55;;;;;;;-5.86;100.00;96190.31;1018481;29;20453;-67
2021/01/10 00:03:50;;;;;;;54.90;27.80;;;;;;;-5.85;100.00;96191.91;1018869;29;20039;-67
2021/01/10 00:04:20;;;;;;;55.67;28.03;;;;;;;-5.83;100.00;96190.00;1016648;28;20837;-67
2021/01/10 00:04:51;;;;;;;50.20;26.50;;;;;;;-5.84;100.00;96188.38;1022609;29;20027;-67
2021/01/10 00:05:27;;;;;;;46.93;26.80;;;;;;;-5.83;100.00;96188.25;1014507;29;20162;-68
2021/01/10 00:05:57;;;;;;;48.50;26.45;;;;;;;-5.80;100.00;96192.22;1012345;29;20564;-67
2021/01/10 00:06:28;;;;;;;54.17;27.70;;;;;;;-5.79;100.00;96187.00;1014970;29;20020;-69
2021/01/10 00:06:58;;;;;;;48.77;25.70;;;;;;;-5.80;100.00;96184.56;1014996;29;20484;-68
2021/01/10 00:07:29;;;;;;;55.13;26.87;;;;;;;-5.89;100.00;96172.72;1018449;29;20020;-67
2021/01/10 00:08:00;;;;;;;51.53;26.23;;;;;;;-5.83;100.00;96174.69;1018914;28;20015;-67
2021/01/10 00:08:30;;;;;;;49.00;26.50;;;;;;;-5.73;100.00;96188.16;1018749;29;20016;-67
2021/01/10 00:09:00;;;;;;;51.77;27.63;;;;;;;-5.72;100.00;96185.44;1022617;28;20024;-67
2021/01/10 00:09:31;;;;;;;48.80;26.13;;;;;;;-5.71;100.00;96178.56;1022172;29;20491;-67
2021/01/10 00:10:03;;;;;;;56.57;28.30;;;;;;;-5.67;100.00;96184.97;1024688;28;20034;-67
2021/01/10 00:10:34;;;;;;;52.10;26.50;;;;;;;-5.66;100.00;96183.25;1026598;28;20793;-67
2021/01/10 00:11:04;;;;;;;47.77;25.73;;;;;;;-5.65;100.00;96185.63;1022869;28;20083;-67
2021/01/10 00:11:35;;;;;;;54.50;28.13;;;;;;;-5.62;100.00;96181.97;1021791;28;20031;-67
2021/01/10 00:12:06;;;;;;;54.40;28.10;;;;;;;-5.58;100.00;96188.41;1021702;29;20490;-69
2021/01/10 00:12:37;;;;;;;57.28;28.42;;;;;;;-5.59;100.00;96176.56;1018537;29;20039;-68
2021/01/10 00:13:07;;;;;;;51.43;28.40;;;;;;;-5.56;100.00;96177.06;1018549;29;20499;-67
2021/01/10 00:13:38;;;;;;;51.70;27.13;;;;;;;-5.56;100.00;96179.63;1014322;29;20060;-69
2021/01/10 00:14:08;;;;;;;49.50;25.27;;;;;;;-5.58;100.00;96166.19;1018573;29;20026;-66
2021/01/10 00:14:39;;;;;;;51.53;26.57;;;;;;;-5.51;100.00;96174.84;1014785;29;20019;-66
2021/01/10 00:15:11;;;;;;;53.17;25.67;;;;;;;-5.48;100.00;96179.66;1016744;29;20499;-66
2021/01/10 00:15:41;;;;;;;44.38;25.17;;;;;;;-5.46;100.00;96182.09;1018497;29;20026;-67
2021/01/10 00:16:12;;;;;;;47.40;26.00;;;;;;;-5.46;100.00;96182.88;1023006;28;20066;-69
2021/01/10 00:16:42;;;;;;;48.63;26.23;;;;;;;-5.43;100.00;96180.94;1028667;28;20077;-69
2021/01/10 00:17:13;;;;;;;52.67;26.97;;;;;;;-5.44;100.00;96175.03;1030418;28;20033;-68
2021/01/10 00:17:45;;;;;;;53.90;26.90;;;;;;;-5.46;100.00;96180.31;1030286;28;20041;-69
2021/01/10 00:18:16;;;;;;;46.67;25.70;;;;;;;-5.43;100.00;96178.41;1022076;28;20039;-68
2021/01/10 00:18:46;;;;;;;52.03;27.83;;;;;;;-5.47;100.00;96180.47;1018987;29;20031;-69
2021/01/10 00:19:17;;;;;;;55.77;27.47;;;;;;;-5.45;100.00;96178.56;1022936;28;20031;-67
2021/01/10 00:19:48;;;;;;;50.57;28.13;;;;;;;-5.48;100.00;96182.22;1026338;28;20777;-69
2021/01/10 00:20:19;;;;;;;59.75;29.30;;;;;;;-5.49;100.00;96183.19;1030435;28;20030;-67
2021/01/10 00:20:49;;;;;;;57.03;29.10;;;;;;;-5.46;100.00;96182.88;1030469;28;20038;-67
2021/01/10 00:21:19;;;;;;;52.13;27.77;;;;;;;-5.52;100.00;96168.16;1026508;28;20083;-66
2021/01/10 00:21:50;;;;;;;54.57;29.00;;;;;;;-5.55;100.00;96163.31;1017988;29;20058;-69
2021/01/10 00:22:22;;;;;;;51.93;29.13;;;;;;;-5.40;100.00;96176.34;1014767;29;20027;-67
2021/01/10 00:22:56;;;;;;;53.10;26.95;;;;;;;-5.39;100.00;96182.28;1014650;29;20133;-69
2021/01/10 00:23:26;;;;;;;53.20;28.30;;;;;;;-5.47;100.00;96171.03;1018981;28;20027;-69
2021/01/10 00:23:57;;;;;;;51.00;27.67;;;;;;;-5.43;100.00;96180.94;1022383;29;20411;-68
2021/01/10 00:24:27;;;;;;;58.07;29.53;;;;;;;-5.61;100.00;96169.03;1023671;28;20055;-67
2021/01/10 00:24:57;;;;;;;55.90;28.90;;;;;;;-5.48;100.00;96176.31;1022048;29;20429;-67
2021/01/10 00:25:28;;;;;;;57.70;30.10;;;;;;;-5.47;100.00;96185.56;1021831;28;20074;-70
2021/01/10 00:25:58;;;;;;;55.23;28.93;;;;;;;-5.45;100.00;96186.22;1026519;28;20030;-69
2021/01/10 00:26:35;;;;;;;57.17;30.57;;;;;;;-5.42;100.00;96180.03;1026152;28;20559;-67
2021/01/10 00:27:08;;;;;;;55.10;28.52;;;;;;;-5.38;100.00;96182.13;1027137;28;20847;-67
2021/01/10 00:27:40;;;;;;;58.63;29.45;;;;;;;-5.43;100.00;96186.06;1030478;28;20034;-67
2021/01/10 00:28:10;;;;;;;52.45;28.50;;;;;;;-5.37;100.00;96180.34;1022236;29;20037;-68
2021/01/10 00:28:41;;;;;;;59.47;29.43;;;;;;;-5.41;100.00;96184.16;1018870;29;20063;-67
2021/01/10 00:29:11;;;;;;;56.30;28.77;;;;;;;-5.39;100.00;96183.06;1018498;29;20072;-70
2021/01/10 00:29:46;;;;;;;55.60;30.30;;;;;;;-5.35;100.00;96173.34;1018848;28;20032;-68
2021/01/10 00:30:19;;;;;;;51.33;28.00;;;;;;;-5.40;100.00;96165.31;1026402;28;20397;-67
2021/01/10 00:30:49;;;;;;;57.35;28.98;;;;;;;-5.34;100.00;96172.38;1023539;28;20030;-68
2021/01/10 00:31:20;;;;;;;52.60;28.87;;;;;;;-5.33;100.00;96173.97;1026531;28;20130;-67
2021/01/10 00:31:50;;;;;;;57.87;29.47;;;;;;;-5.35;100.00;96175.91;1022347;29;20082;-68
2021/01/10 00:32:21;;;;;;;59.93;29.83;;;;;;;-5.33;100.00;96177.34;1018286;28;20036;-68
2021/01/10 00:32:52;;;;;;;55.70;29.53;;;;;;;-5.29;100.00;96172.72;1018600;29;20167;-67
2021/01/10 00:33:23;;;;;;;55.88;29.70;;;;;;;-5.28;100.00;96179.44;1015232;29;20531;-68
2021/01/10 00:33:53;;;;;;;54.23;29.03;;;;;;;-5.29;100.00;96177.84;1016893;29;20031;-69
2021/01/10 00:34:24;;;;;;;52.33;28.60;;;;;;;-5.35;100.00;96179.25;1018599;29;20578;-68
2021/01/10 00:34:54;;;;;;;50.70;27.00;;;;;;;-5.46;100.00;96152.19;1022437;29;20023;-67
2021/01/10 00:35:25;;;;;;;53.97;28.47;;;;;;;-5.35;100.00;96170.78;1022411;28;20722;-68
2021/01/10 00:35:56;;;;;;;53.20;28.90;;;;;;;-5.34;100.00;96170.63;1018700;29;20040;-67
2021/01/10 00:36:46;;;;;;;56.27;29.07;;;;;;;-5.33;100.00;96181.66;1017844;29;20078;-67
2021/01/10 00:37:18;;;;;;;54.85;28.17;;;;;;;-5.31;100.00;96175.44;1020632;28;20506;-68
2021/01/10 00:37:50;;;;;;;56.78;28.52;;;;;;;-5.32;100.00;96183.25;1022397;29;20043;-69
2021/01/10 00:38:21;;;;;;;57.17;28.75;;;;;;;-5.32;100.00;96173.03;1028392;28;20061;-68
2021/01/10 00:38:51;;;;;;;52.97;27.27;;;;;;;-5.29;100.00;96182.97;1026059;28;20023;-67
2021/01/10 00:39:22;;;;;;;63.67;30.87;;;;;;;-5.27;100.00;96181.03;1022380;29;20034;-67
2021/01/10 00:39:52;;;;;;;62.30;29.13;;;;;;;-5.39;100.00;96161.81;1022636;28;20800;-67
2021/01/10 00:40:24;;;;;;;51.87;28.93;;;;;;;-5.27;100.00;96175.94;1022146;28;20027;-68
2021/01/10 00:40:54;;;;;;;55.72;28.75;;;;;;;-5.25;100.00;96181.69;1014650;29;20593;-67
2021/01/10 00:41:24;;;;;;;62.03;29.53;;;;;;;-5.25;100.00;96179.13;1014769;29;20036;-69
2021/01/10 00:41:55;;;;;;;50.27;25.97;;;;;;;-5.23;100.00;96182.34;1011016;29;20523;-68
2021/01/10 00:42:25;;;;;;;53.77;25.80;;;;;;;-5.24;100.00;96175.63;1017700;28;20027;-67
2021/01/10 00:42:56;;;;;;;49.30;26.00;;;;;;;-5.24;100.00;96180.72;1026571;28;20106;-67
2021/01/10 00:43:26;;;;;;;58.03;27.60;;;;;;;-5.25;100.00;96184.25;1026674;28;20023;-67
2021/01/10 00:43:57;;;;;;;48.23;26.30;;;;;;;-5.26;100.00;96178.34;1031703;28;20034;-68
2021/01/10 00:44:28;;;;;;;52.80;28.53;;;;;;;-5.24;100.00;96180.72;1030446;28;20508;-68
2021/01/10 00:44:58;;;;;;;52.07;27.70;;;;;;;-5.26;100.00;96183.47;1034630;28;20026;-70
2021/01/10 00:45:29;;;;;;;52.93;27.27;;;;;;;-5.25;100.00;96179.13;1034406;28;20449;-68
2021/01/10 00:45:59;;;;;;;46.83;25.70;;;;;;;-5.33;100.00;96164.56;1033036;28;20481;-68
2021/01/10 00:46:31;;;;;;;46.43;25.53;;;;;;;-5.27;100.00;96174.16;1034192;28;20030;-68
2021/01/10 00:47:02;;;;;;;44.95;25.58;;;;;;;-5.22;100.00;96174.53;1035232;28;20024;-69
2021/01/10 00:47:33;;;;;;;50.42;26.40;;;;;;;-5.22;100.00;96181.41;1030743;28;20654;-68
2021/01/10 00:48:03;;;;;;;45.87;25.27;;;;;;;-5.23;100.00;96180.59;1031406;28;20030;-66
2021/01/10 00:48:34;;;;;;;48.97;26.37;;;;;;;-5.21;100.00;96183.00;1031720;28;20105;-67
2021/01/10 00:49:04;;;;;;;43.57;24.97;;;;;;;-5.19;100.00;96188.75;1031205;28;20026;-69
2021/01/10 00:49:35;;;;;;;51.23;25.70;;;;;;;-5.17;100.00;96186.03;1023550;29;20054;-67
2021/01/10 00:50:06;;;;;;;45.23;25.43;;;;;;;-5.14;100.00;96190.84;1015554;29;20130;-66
2021/01/10 00:50:37;;;;;;;48.40;25.20;;;;;;;-5.11;100.00;96185.44;1012011;29;20065;-69
2021/01/10 00:51:14;;;;;;;45.20;26.20;;;;;;;-5.16;100.00;96179.97;1015385;29;20096;-67
2021/01/10 00:51:44;;;;;;;46.35;25.65;;;;;;;-5.11;100.00;96186.22;1021509;28;20016;-68
2021/01/10 00:52:15;;;;;;;44.43;25.43;;;;;;;-5.08;100.00;96185.13;1028237;28;20015;-67
2021/01/10 00:52:45;;;;;;;48.93;25.60;;;;;;;-5.06;100.00;96184.03;1028578;28;20022;-68
2021/01/10 00:53:16;;;;;;;46.43;24.77;;;;;;;-5.05;100.00;96183.06;1027328;28;20526;-66
2021/01/10 00:53:46;;;;;;;45.10;24.83;;;;;;;-5.08;100.00;96174.91;1027368;28;20026;-67
2021/01/10 00:54:17;;;;;;;45.00;24.73;;;;;;;-5.02;100.00;96185.31;1023064;28;20019;-67
2021/01/10 00:54:47;;;;;;;47.57;25.17;;;;;;;-5.04;100.00;96178.75;1027289;28;20102;-67
2021/01/10 00:55:17;;;;;;;45.03;24.67;;;;;;;-5.00;100.00;96183.41;1019257;29;20047;-68
2021/01/10 00:55:48;;;;;;;47.27;25.97;;;;;;;-5.03;100.00;96183.72;1019332;29;20067;-69
2021/01/10 00:56:18;;;;;;;45.70;24.50;;;;;;;-4.98;100.00;96189.16;1021945;28;20368;-68
2021/01/10 00:56:49;;;;;;;41.90;23.20;;;;;;;-4.99;100.00;96185.00;1023153;28;20028;-68
2021/01/10 00:57:19;;;;;;;41.83;24.17;;;;;;;-4.94;100.00;96183.72;1023064;29;21367;-67
2021/01/10 00:57:50;;;;;;;47.60;24.70;;;;;;;-5.03;100.00;96167.53;1026851;28;20077;-67
2021/01/10 00:58:20;;;;;;;41.17;24.20;;;;;;;-4.93;100.00;96185.34;1031398;28;20066;-67
2021/01/10 00:58:51;;;;;;;43.40;25.03;;;;;;;-5.01;100.00;96165.66;1035616;28;20428;-68
2021/01/10 00:59:21;;;;;;;43.93;24.73;;;;;;;-4.90;100.00;96180.69;1029181;28;20046;-68
2021/01/10 00:59:52;;;;;;;47.63;26.23;;;;;;;-4.90;100.00;96182.47;1019329;29;20067;-68
2021/01/10 01:00:23;;;;;;;42.27;23.80;;;;;;;-4.95;100.00;96182.13;1015459;29;20044;-68
2021/01/10 01:00:54;;;;;;;46.50;24.98;;;;;;;-4.98;100.00;96175.56;1015507;29;20024;-67
2021/01/10 01:01:24;;;;;;;43.57;24.67;;;;;;;-4.87;100.00;96187.28;1019036;29;20693;-68
2021/01/10 01:01:55;;;;;;;41.07;23.73;;;;;;;-4.94;100.00;96173.50;1019543;29;20051;-68
2021/01/10 01:02:25;;;;;;;46.93;24.90;;;;;;;-4.86;100.00;96188.88;1019582;29;20031;-67
2021/01/10 01:02:55;;;;;;;48.73;26.37;;;;;;;-4.90;100.00;96172.22;1018630;29;20487;-68
2021/01/10 01:03:26;;;;;;;47.27;25.30;;;;;;;-4.80;100.00;96188.25;1019211;29;20027;-67
2021/01/10 01:03:56;;;;;;;40.70;23.13;;;;;;;-4.82;100.00;96190.19;1015480;29;20035;-70
2021/01/10 01:04:27;;;;;;;45.50;24.23;;;;;;;-4.88;100.00;96171.13;1020931;28;20419;-69
2021/01/10 01:04:57;;;;;;;39.90;23.30;;;;;;;-4.81;100.00;96186.66;1027377;28;20037;-68
2021/01/10 01:05:28;;;;;;;42.10;24.40;;;;;;;-4.78;100.00;96186.34;1023191;28;20034;-68
2021/01/10 01:05:58;;;;;;;45.73;24.87;;;;;;;-4.77;100.00;96187.94;1027490;28;20143;-68
2021/01/10 01:06:30;;;;;;;42.47;23.43;;;;;;;-4.80;100.00;96194.16;1026866;28;20486;-67
2021/01/10 01:07:00;;;;;;;40.85;23.95;;;;;;;-4.77;100.00;96187.94;1027450;28;20026;-68
2021/01/10 01:07:31;;;;;;;47.93;25.33;;;;;;;-4.74;100.00;96187.63;1027236;28;20537;-68
2021/01/10 01:08:01;;;;;;;44.93;25.57;;;;;;;-4.71;100.00;96189.09;1030014;28;20018;-67
2021/01/10 01:08:32;;;;;;;43.43;23.17;;;;;;;-4.79;100.00;96174.53;1031362;28;20536;-68
2021/01/10 01:09:05;;;;;;;42.07;22.87;;;;;;;-4.75;100.00;96180.94;1027442;28;20019;-67
2021/01/10 01:09:36;;;;;;;37.85;22.00;;;;;;;-4.76;100.00;96179.31;1025299;28;20039;-69
2021/01/10 01:10:07;;;;;;;37.87;21.93;;;;;;;-4.74;100.00;96192.75;1015178;29;20436;-69
2021/01/10 01:10:37;;;;;;;42.60;22.35;;;;;;;-4.77;100.00;96186.19;1015450;29;20013;-66
2021/01/10 01:11:08;;;;;;;39.83;22.87;;;;;;;-4.72;100.00;96185.72;1019497;29;20100;-68
2021/01/10 01:11:39;;;;;;;42.03;23.33;;;;;;;-4.74;100.00;96187.63;1024366;28;20030;-68
2021/01/10 01:12:09;;;;;;;41.83;22.93;;;;;;;-4.77;100.00;96182.81;1023325;29;20023;-66
2021/01/10 01:12:40;;;;;;;39.37;21.27;;;;;;;-4.85;100.00;96170.03;1019534;29;20571;-67
2021/01/10 01:13:10;;;;;;;39.00;22.30;;;;;;;-4.76;100.00;96187.00;1015448;29;20024;-69
2021/01/10 01:13:41;;;;;;;40.17;23.03;;;;;;;-4.82;100.00;96190.19;1019374;29;20034;-68
2021/01/10 01:14:11;;;;;;;35.40;20.70;;;;;;;-4.84;100.00;96182.66;1019126;29;20055;-68
2021/01/10 01:14:42;;;;;;;45.07;23.27;;;;;;;-4.81;100.00;96182.34;1018521;28;20086;-66
2021/01/10 01:15:13;;;;;;;41.20;21.83;;;;;;;-4.80;100.00;96183.13;1023003;28;20494;-67
2021/01/10 01:15:43;;;;;;;43.22;23.42;;;;;;;-4.84;100.00;96171.59;1022958;28;20043;-67
2021/01/10 01:16:14;;;;;;;41.87;22.83;;;;;;;-5.00;100.00;96145.03;1022678;29;20027;-67
2021/01/10 01:16:45;;;;;;;39.80;22.20;;;;;;;-4.75;100.00;96180.94;1021872;29;20019;-68
2021/01/10 01:17:15;;;;;;;38.23;22.77;;;;;;;-4.79;100.00;96180.44;1023063;29;20015;-69
2021/01/10 01:17:46;;;;;;;40.67;22.40;;;;;;;-4.77;100.00;96180.25;1023373;28;20070;-67
2021/01/10 01:18:18;;;;;;;39.43;21.37;;;;;;;-4.78;100.00;96181.22;1021733;29;20482;-67
2021/01/10 01:18:48;;;;;;;39.25;23.05;;;;;;;-4.77;100.00;96187.94;1018507;28;20024;-67
2021/01/10 01:19:18;;;;;;;40.83;22.80;;;;;;;-4.78;100.00;96181.22;1025420;28;20019;-68
2021/01/10 01:19:49;;;;;;;39.93;21.90;;;;;;;-4.77;100.00;96178.50;1019580;29;20498;-68
2021/01/10 01:20:19;;;;;;;39.67;21.73;;;;;;;-4.77;100.00;96177.72;1024378;28;20015;-68
2021/01/10 01:20:50;;;;;;;41.17;23.17;;;;;;;-4.78;100.00;96176.91;1027276;28;20106;-66
2021/01/10 01:21:21;;;;;;;40.43;21.27;;;;;;;-4.76;100.00;96184.44;1023065;29;20118;-67
2021/01/10 01:21:54;;;;;;;43.10;23.20;;;;;;;-4.73;100.00;96186.66;1023405;28;20624;-67
2021/01/10 01:22:28;;;;;;;39.05;22.10;;;;;;;-4.75;100.00;96175.81;1023405;28;20381;-70
2021/01/10 01:22:58;;;;;;;39.10;21.20;;;;;;;-4.73;100.00;96179.00;1025952;28;20110;-70
2021/01/10 01:23:29;;;;;;;39.40;21.43;;;;;;;-4.82;100.00;96172.28;1031322;28;20026;-68
2021/01/10 01:23:59;;;;;;;39.23;21.77;;;;;;;-4.74;100.00;96188.44;1027164;28;20113;-70
2021/01/10 01:24:30;;;;;;;39.77;21.67;;;;;;;-4.71;100.00;96181.41;1029543;28;20549;-68
2021/01/10 01:25:02;;;;;;;40.50;22.23;;;;;;;-4.70;100.00;96180.44;1027332;28;20031;-68
2021/01/10 01:25:32;;;;;;;35.83;21.65;;;;;;;-4.79;100.00;96164.28;1027549;28;20034;-67
2021/01/10 01:26:03;;;;;;;39.97;21.40;;;;;;;-4.68;100.00;96181.91;1024748;28;20051;-68
2021/01/10 01:26:33;;;;;;;36.37;21.10;;;;;;;-4.68;100.00;96176.78;1026677;28;20582;-70
2021/01/10 01:27:04;;;;;;;41.20;21.47;;;;;;;-4.69;100.00;96180.31;1025862;28;20102;-68
2021/01/10 01:27:34;;;;;;;39.27;22.33;;;;;;;-4.68;100.00;96181.91;1019451;28;20020;-66
2021/01/10 01:28:05;;;;;;;36.10;20.83;;;;;;;-4.64;100.00;96180.63;1023237;29;20064;-68
2021/01/10 01:28:35;;;;;;;40.13;21.50;;;;;;;-4.62;100.00;96186.41;1017695;29;20020;-68
2021/01/10 01:29:06;;;;;;;38.00;21.47;;;;;;;-4.61;100.00;96182.06;1023480;28;20058;-69
2021/01/10 01:29:36;;;;;;;40.00;21.67;;;;;;;-4.60;100.00;96184.47;1031431;28;20524;-68
2021/01/10 01:30:07;;;;;;;39.57;21.57;;;;;;;-4.59;100.00;96186.09;1034989;28;20014;-68
2021/01/10 01:30:38;;;;;;;34.95;20.35;;;;;;;-4.62;100.00;96191.50;1026988;28;20027;-69
2021/01/10 01:31:10;;;;;;;40.00;21.87;;;;;;;-4.60;100.00;96184.47;1019268;29;20204;-67
2021/01/10 01:31:40;;;;;;;39.05;21.38;;;;;;;-4.57;100.00;96188.47;1019207;29;20011;-68
2021/01/10 01:32:17;;;;;;;34.97;19.93;;;;;;;-4.60;100.00;96181.09;1021892;28;20055;-68
2021/01/10 01:32:47;;;;;;;34.72;20.58;;;;;;;-4.63;100.00;96184.78;1025165;28;20039;-70
2021/01/10 01:33:18;;;;;;;37.03;20.07;;;;;;;-4.63;100.00;96189.09;1031331;28;20109;-69
2021/01/10 01:33:49;;;;;;;37.87;20.50;;;;;;;-4.71;100.00;96166.06;1028306;28;20050;-67
2021/01/10 01:34:19;;;;;;;36.00;19.67;;;;;;;-4.66;100.00;96177.44;1019097;29;20043;-68
2021/01/10 01:34:50;;;;;;;35.33;20.17;;;;;;;-4.60;100.00;96184.47;1015418;29;20444;-67
2021/01/10 01:35:20;;;;;;;32.33;19.20;;;;;;;-4.61;100.00;96180.31;1012047;29;20019;-68
2021/01/10 01:35:51;;;;;;;35.27;19.97;;;;;;;-4.63;100.00;96184.78;1019144;29;20020;-67
2021/01/10 01:36:29;;;;;;;35.30;19.60;;;;;;;-4.75;100.00;96168.91;1018581;29;20024;-68
2021/01/10 01:36:59;;;;;;;35.63;19.05;;;;;;;-4.66;100.00;96187.66;1026462;28;20035;-68
2021/01/10 01:37:30;;;;;;;36.77;20.03;;;;;;;-4.63;100.00;96179.66;1027183;28;20030;-67
2021/01/10 01:38:00;;;;;;;37.43;20.37;;;;;;;-4.63;100.00;96183.97;1026210;28;20394;-69
2021/01/10 01:38:31;;;;;;;36.00;19.83;;;;;;;-4.63;100.00;96189.88;1024077;28;20068;-68
2021/01/10 01:39:02;;;;;;;34.43;19.47;;;;;;;-4.70;100.00;96172.75;1033710;28;20531;-68
2021/01/10 01:39:32;;;;;;;38.33;20.03;;;;;;;-4.60;100.00;96194.69;1027332;28;20029;-67
2021/01/10 01:40:06;;;;;;;34.47;19.83;;;;;;;-4.63;100.00;96189.09;1027278;28;20390;-67
2021/01/10 01:40:36;;;;;;;35.58;19.50;;;;;;;-4.60;100.00;96189.59;1022880;29;20167;-66
2021/01/10 01:41:07;;;;;;;31.53;19.13;;;;;;;-4.64;100.00;96183.19;1024164;28;20826;-67
2021/01/10 01:41:38;;;;;;;35.42;19.75;;;;;;;-4.60;100.00;96189.59;1019837;29;20104;-68
2021/01/10 01:42:13;;;;;;;34.50;19.03;;;;;;;-4.59;100.00;96191.19;1022654;28;20102;-69
2021/01/10 01:42:45;;;;;;;34.50;19.00;;;;;;;-4.58;100.00;96192.00;1023240;29;20093;-69
2021/01/10 01:43:16;;;;;;;33.72;19.27;;;;;;;-4.58;100.00;96194.56;1022197;29;20090;-67
2021/01/10 01:43:46;;;;;;;33.37;18.70;;;;;;;-4.63;100.00;96179.66;1020163;28;20087;-67
2021/01/10 01:44:17;;;;;;;34.40;19.07;;;;;;;-4.66;100.00;96179.16;1023531;28;20147;-66
2021/01/10 01:44:47;;;;;;;34.53;19.30;;;;;;;-4.61;100.00;96193.09;1023531;28;20034;-69
2021/01/10 01:45:18;;;;;;;36.23;20.17;;;;;;;-4.61;100.00;96192.31;1027017;28;20509;-68
2021/01/10 01:45:48;;;;;;;32.07;19.70;;;;;;;-4.66;100.00;96192.78;1018600;29;20034;-68
2021/01/10 01:46:24;;;;;;;36.33;20.60;;;;;;;-4.67;100.00;96191.16;1010920;29;20092;-68
2021/01/10 01:46:55;;;;;;;39.13;19.92;;;;;;;-4.72;100.00;96188.28;1015839;29;20492;-67
2021/01/10 01:47:25;;;;;;;34.50;19.43;;;;;;;-4.75;100.00;96189.41;1017895;29;20028;-69
2021/01/10 01:47:56;;;;;;;31.53;18.77;;;;;;;-4.75;100.00;96196.28;1019764;29;20663;-67
2021/01/10 01:48:26;;;;;;;37.17;19.70;;;;;;;-4.83;100.00;96193.69;1023334;28;20016;-67
2021/01/10 01:48:57;;;;;;;36.47;19.83;;;;;;;-4.89;100.00;96186.66;1019215;29;20080;-67
2021/01/10 01:49:28;;;;;;;41.33;21.27;;;;;;;-4.89;100.00;96194.31;1020284;29;20024;-68
2021/01/10 01:49:58;;;;;;;36.57;19.63;;;;;;;-4.91;100.00;96196.22;1015399;29;20400;-67
2021/01/10 01:50:29;;;;;;;33.90;20.53;;;;;;;-4.91;100.00;96198.78;1020752;29;20090;-69
2021/01/10 01:50:59;;;;;;;35.63;20.10;;;;;;;-5.00;100.00;96190.25;1020540;28;20022;-68
2021/01/10 01:51:30;;;;;;;37.57;19.97;;;;;;;-5.00;100.00;96196.22;1027047;28;20006;-68
2021/01/10 01:52:01;;;;;;;37.93;19.83;;;;;;;-5.02;100.00;96187.88;1029840;28;20127;-69
2021/01/10 01:52:32;;;;;;;38.87;20.63;;;;;;;-5.01;100.00;96201.47;1024370;28;20443;-69
2021/01/10 01:53:02;;;;;;;37.53;20.42;;;;;;;-5.05;100.00;96198.41;1027268;28;20019;-68
2021/01/10 01:53:33;;;;;;;37.53;20.80;;;;;;;-5.06;100.00;96204.50;1023081;29;20016;-69
2021/01/10 01:54:04;;;;;;;36.43;19.33;;;;;;;-5.07;100.00;96205.44;1023140;28;20494;-68
2021/01/10 01:54:35;;;;;;;38.42;20.42;;;;;;;-5.09;100.00;96207.34;1023135;28;20032;-67
2021/01/10 01:55:05;;;;;;;38.57;20.27;;;;;;;-5.08;100.00;96206.38;1019192;29;20019;-68
2021/01/10 01:55:36;;;;;;;36.03;20.03;;;;;;;-5.10;100.00;96202.38;1015077;29;20055;-66
2021/01/10 01:56:06;;;;;;;36.27;21.00;;;;;;;-5.11;100.00;96206.69;1022777;28;20054;-68
2021/01/10 01:56:37;;;;;;;38.00;20.20;;;;;;;-5.13;100.00;96198.38;1022120;29;20054;-68
2021/01/10 01:57:07;;;;;;;38.50;20.17;;;;;;;-5.11;100.00;96201.56;1023037;28;20043;-67
2021/01/10 01:57:39;;;;;;;36.77;19.73;;;;;;;-5.15;100.00;96207.97;1026987;28;20470;-69
2021/01/10 01:58:09;;;;;;;41.08;21.23;;;;;;;-5.15;100.00;96202.84;1027174;28;20642;-67
2021/01/10 01:59:04;;;;;;;36.43;20.33;;;;;;;-5.17;100.00;96199.63;1025871;28;20023;-67
2021/01/10 01:59:34;;;;;;;42.75;20.05;;;;;;;-5.17;100.00;96199.63;1023089;29;20015;-69
2021/01/10 02:00:05;;;;;;;41.73;21.03;;;;;;;-5.19;100.00;96198.19;1022632;28;20047;-68
2021/01/10 02:00:36;;;;;;;38.72;19.83;;;;;;;-5.22;100.00;96204.41;1026517;28;20630;-68
2021/01/10 02:01:06;;;;;;;43.70;21.40;;;;;;;-5.25;100.00;96200.41;1028722;28;20029;-67
2021/01/10 02:01:37;;;;;;;39.87;20.53;;;;;;;-5.28;100.00;96199.91;1027102;28;20093;-67
2021/01/10 02:02:08;;;;;;;39.38;20.42;;;;;;;-5.39;100.00;96192.50;1019430;29;20020;-68
2021/01/10 02:02:41;;;;;;;37.87;20.33;;;;;;;-5.32;100.00;96204.53;1015286;29;20031;-69
2021/01/10 02:03:16;;;;;;;40.55;21.77;;;;;;;-5.35;100.00;96204.03;1015291;29;20056;-68
2021/01/10 02:03:47;;;;;;;36.47;21.45;;;;;;;-5.39;100.00;96202.72;1018645;29;20015;-67
2021/01/10 02:04:30;;;;;;;38.07;20.50;;;;;;;-5.49;100.00;96188.28;1015548;29;20812;-65
2021/01/10 02:05:07;;;;;;;40.20;21.58;;;;;;;-5.42;100.00;96203.81;1031236;28;20030;-67
2021/01/10 02:05:37;;;;;;;41.63;20.23;;;;;;;-5.46;100.00;96202.53;1020562;28;20026;-67
2021/01/10 02:06:10;;;;;;;34.00;19.43;;;;;;;-5.49;100.00;96206.19;1022880;28;20030;-68
2021/01/10 02:06:54;;;;;;;38.63;20.10;;;;;;;-5.53;100.00;96202.34;1018430;29;20027;-66
2021/01/10 02:08:00;;;;;;;48.15;22.63;;;;;;;-5.53;100.00;96201.53;1027106;28;20078;-67
2021/01/10 02:08:31;;;;;;;40.95;18.98;;;;;;;-5.54;100.00;96203.28;1032244;28;20038;-67
2021/01/10 02:09:05;;;;;;;40.78;20.77;;;;;;;-5.60;100.00;96198.78;1034148;28;20022;-68
2021/01/10 02:09:37;;;;;;;38.58;20.17;;;;;;;-5.59;100.00;96207.25;1023149;29;20023;-68
2021/01/10 02:10:10;;;;;;;38.20;20.73;;;;;;;-5.61;100.00;96209.94;1022986;29;20738;-70
2021/01/10 02:10:41;;;;;;;45.20;21.60;;;;;;;-5.67;100.00;96202.88;1019530;29;20072;-68
2021/01/10 02:11:11;;;;;;;38.93;21.00;;;;;;;-5.66;100.00;96204.50;1019061;29;20020;-68
2021/01/10 02:11:42;;;;;;;42.97;22.50;;;;;;;-5.69;100.00;96205.59;1015139;29;20260;-69
2021/01/10 02:12:13;;;;;;;41.83;22.33;;;;;;;-5.67;100.00;96202.88;1018445;29;20490;-69
2021/01/10 02:12:53;;;;;;;48.95;22.83;;;;;;;-5.70;100.00;96204.00;1019498;28;20047;-68
2021/01/10 02:13:23;;;;;;;40.50;21.85;;;;;;;-5.74;100.00;96202.66;1025796;28;20027;-67
2021/01/10 02:13:54;;;;;;;42.40;21.87;;;;;;;-5.75;100.00;96202.81;1027933;28;20050;-68
2021/01/10 02:14:25;;;;;;;44.97;23.20;;;;;;;-5.84;100.00;96196.84;1022760;29;20063;-69
2021/01/10 02:14:57;;;;;;;48.55;23.30;;;;;;;-5.85;100.00;96192.69;1019192;29;20027;-69
2021/01/10 02:15:30;;;;;;;43.10;23.05;;;;;;;-5.81;100.00;96193.19;1015905;29;20167;-69
2021/01/10 02:16:01;;;;;;;44.53;22.38;;;;;;;-5.75;100.00;96202.81;1015215;29;20431;-69
2021/01/10 02:16:32;;;;;;;46.37;23.10;;;;;;;-5.78;100.00;96203.13;1018197;29;20030;-67
2021/01/10 02:17:03;;;;;;;47.90;23.70;;;;;;;-5.87;100.00;96194.59;1018531;28;20028;-66
2021/01/10 02:17:33;;;;;;;42.37;23.03;;;;;;;-5.79;100.00;96204.06;1018918;29;20452;-68
2021/01/10 02:18:06;;;;;;;43.13;22.97;;;;;;;-5.87;100.00;96188.69;1015134;29;20016;-66
2021/01/10 02:18:36;;;;;;;45.65;23.23;;;;;;;-5.80;100.00;96202.44;1014946;29;20031;-67
2021/01/10 02:19:10;;;;;;;41.40;21.93;;;;;;;-5.80;100.00;96210.94;1013791;29;20017;-66
2021/01/10 02:19:50;;;;;;;43.63;23.67;;;;;;;-5.84;100.00;96203.72;1019090;29;20020;-67
2021/01/10 02:20:28;;;;;;;47.00;23.60;;;;;;;-5.96;100.00;96187.88;1016980;29;20016;-70
2021/01/10 02:21:06;;;;;;;46.53;24.20;;;;;;;-5.83;100.00;96205.34;1022676;28;20166;-67
2021/01/10 02:21:37;;;;;;;52.78;25.50;;;;;;;-5.84;100.00;96201.94;1023073;29;20522;-67
2021/01/10 02:22:07;;;;;;;50.13;24.67;;;;;;;-5.83;100.00;96210.44;1019310;29;20019;-68
2021/01/10 02:23:24;;;;;;;49.83;26.37;;;;;;;-5.83;100.00;96205.34;1018822;29;20019;-68
2021/01/10 02:24:00;;;;;;;50.22;26.17;;;;;;;-5.85;100.00;96207.22;1012863;29;20033;-68